CPX957 Details

Departure: Chicago/Rockford International Airport (KRFD)
Arrival: Joint Base McGuire Dix Lakehurst (KWRI)
Route: QUOTE WHETT J64 LEPEW J518 AVERE J152 HAR HAR5
Notes: EMPTY | NON-REVENUE REPOSITIONING LEG


Current Weather Information
KRFD 260120Z 35014G24KT 7SM -RA FEW010 BKN015 OVC070 12/10 A2978 RMK AO2 P0003 T01170100
KWRI 260056Z AUTO 11004KT 10SM FEW050 SCT085 BKN120 12/07 A2991 RMK AO2 SLP128 T01240069 $